Time;durP1;ratioP1;P1;durP2;ratioP2;P2;SDS_P1;SDS_P2;PMS_P1;PMS_P2;Temp;Humidity;BMP_temperature;BMP_pressure;BME280_temperature;BME280_humidity;BME280_pressure;Samples;Min_cycle;Max_cycle;Signal;HPM_P1;HPM_P2
2023/09/18 00:00:18;;;;;;;4.97;2.50;;;17.10;98.20;;;;;;2055495;28;20526;-82
2023/09/18 00:01:19;;;;;;;6.37;2.10;;;17.30;97.20;;;;;;2063182;28;20186;-80
2023/09/18 00:02:20;;;;;;;2.90;2.00;;;17.30;97.30;;;;;;2064390;28;20449;-82
2023/09/18 00:03:24;;;;;;;4.63;2.23;;;17.40;96.50;;;;;;2055037;28;20528;-81
2023/09/18 00:04:24;;;;;;;5.30;2.53;;;17.60;95.90;;;;;;2063740;28;20234;-79
2023/09/18 00:05:25;;;;;;;4.00;2.03;;;17.80;94.50;;;;;;2063287;28;20480;-82
2023/09/18 00:06:26;;;;;;;4.00;2.37;;;17.90;93.70;;;;;;2054929;28;20237;-82
2023/09/18 00:07:27;;;;;;;4.73;2.20;;;18.20;92.60;;;;;;2063166;28;20474;-82
2023/09/18 00:08:28;;;;;;;6.13;2.10;;;18.40;92.60;;;;;;2062949;28;20285;-82
2023/09/18 00:09:28;;;;;;;7.93;2.60;;;18.50;91.90;;;;;;2062675;28;20720;-82
2023/09/18 00:10:30;;;;;;;3.23;2.10;;;18.60;91.00;;;;;;2062976;28;20249;-81
2023/09/18 00:11:31;;;;;;;3.57;2.30;;;18.60;91.00;;;;;;2055134;28;20641;-81
2023/09/18 00:12:31;;;;;;;4.33;2.00;;;18.70;90.50;;;;;;2055703;28;20524;-82
2023/09/18 00:13:32;;;;;;;4.73;2.30;;;18.80;90.20;;;;;;2054919;28;20234;-82
2023/09/18 00:14:33;;;;;;;6.37;2.27;;;18.80;89.20;;;;;;2055107;28;20242;-81
2023/09/18 00:15:33;;;;;;;6.03;2.17;;;18.80;88.90;;;;;;2064772;28;20265;-82
2023/09/18 00:16:35;;;;;;;3.30;2.03;;;19.00;85.90;;;;;;2064580;28;20685;-82
2023/09/18 00:17:36;;;;;;;5.27;2.03;;;19.10;84.40;;;;;;2057049;28;20270;-82
2023/09/18 00:18:37;;;;;;;3.33;1.97;;;19.30;83.10;;;;;;2054929;28;20472;-81
2023/09/18 00:19:37;;;;;;;2.43;2.00;;;19.50;79.60;;;;;;2064318;28;20473;-81
2023/09/18 00:20:38;;;;;;;3.43;2.03;;;19.70;78.10;;;;;;2056886;28;20313;-82
2023/09/18 00:21:39;;;;;;;5.23;1.87;;;19.80;75.80;;;;;;2056460;28;20807;-81
2023/09/18 00:22:39;;;;;;;3.33;2.00;;;19.90;74.90;;;;;;2065378;28;20288;-81
2023/09/18 00:23:40;;;;;;;3.93;1.90;;;19.90;73.30;;;;;;2062301;28;20280;-80
2023/09/18 00:24:41;;;;;;;4.93;2.13;;;20.10;72.60;;;;;;2054554;28;20270;-80
2023/09/18 00:25:42;;;;;;;5.20;2.23;;;20.20;71.20;;;;;;2058715;28;20265;-82
2023/09/18 00:26:43;;;;;;;6.30;2.00;;;20.20;70.30;;;;;;2067948;28;20230;-81
2023/09/18 00:27:43;;;;;;;5.10;1.87;;;20.20;71.00;;;;;;2067145;28;20888;-81
2023/09/18 00:28:44;;;;;;;6.23;1.93;;;20.30;69.90;;;;;;2079318;28;20241;-80
2023/09/18 00:29:45;;;;;;;7.10;2.20;;;20.40;69.20;;;;;;2070517;28;20234;-81
2023/09/18 00:30:50;;;;;;;4.17;1.83;;;20.50;68.60;;;;;;2079195;28;20236;-80
2023/09/18 00:31:51;;;;;;;4.43;1.90;;;20.50;72.30;;;;;;2077526;28;20225;-82
2023/09/18 00:32:51;;;;;;;7.97;2.33;;;20.40;69.60;;;;;;2059344;28;20839;-81
2023/09/18 00:33:52;;;;;;;5.73;2.20;;;20.40;69.30;;;;;;2058698;28;20293;-81
2023/09/18 00:34:53;;;;;;;3.33;2.03;;;20.40;68.50;;;;;;2066923;28;20281;-82
2023/09/18 00:35:53;;;;;;;4.67;2.23;;;20.50;68.20;;;;;;2067028;28;20258;-81
2023/09/18 00:36:54;;;;;;;4.40;2.10;;;20.40;69.70;;;;;;2064843;28;20312;-81
2023/09/18 00:37:56;;;;;;;6.57;2.23;;;20.40;70.10;;;;;;2065278;28;21018;-81
2023/09/18 00:38:56;;;;;;;5.93;2.20;;;20.40;70.50;;;;;;2064444;28;20230;-82
2023/09/18 00:39:57;;;;;;;4.20;2.03;;;20.50;75.30;;;;;;2056774;28;20469;-81
2023/09/18 00:40:58;;;;;;;7.90;2.67;;;20.30;77.90;;;;;;2057420;28;20265;-81
2023/09/18 00:41:58;;;;;;;2.80;2.00;;;20.30;84.00;;;;;;2061112;28;20254;-82
2023/09/18 00:42:59;;;;;;;5.90;2.37;;;20.10;84.30;;;;;;2057468;28;20234;-81
2023/09/18 00:44:00;;;;;;;3.43;2.27;;;19.70;89.10;;;;;;2048722;28;20227;-81
2023/09/18 00:45:02;;;;;;;4.00;2.10;;;19.50;90.90;;;;;;2056874;28;20235;-81
2023/09/18 00:46:03;;;;;;;8.27;1.90;;;19.40;86.50;;;;;;2055750;28;20309;-81
2023/09/18 00:47:04;;;;;;;4.40;2.07;;;19.40;85.30;;;;;;2056655;28;20428;-81
2023/09/18 00:48:04;;;;;;;6.27;2.30;;;19.40;90.70;;;;;;2056496;28;20187;-81
2023/09/18 00:49:05;;;;;;;6.77;2.20;;;19.40;91.00;;;;;;2064247;28;20284;-81
2023/09/18 00:50:11;;;;;;;4.13;2.30;;;19.50;89.50;;;;;;2063967;28;20206;-81
2023/09/18 00:51:13;;;;;;;3.53;2.30;;;19.40;91.30;;;;;;2057702;28;20277;-81
2023/09/18 00:52:16;;;;;;;5.10;2.50;;;19.40;90.00;;;;;;2048591;28;20469;-81
2023/09/18 00:53:21;;;;;;;5.97;2.33;;;19.40;90.30;;;;;;2056885;28;20949;-81
2023/09/18 00:54:22;;;;;;;7.40;2.40;;;19.30;90.30;;;;;;2064404;28;20519;-81
2023/09/18 00:55:23;;;;;;;9.47;2.80;;;19.30;91.00;;;;;;2064588;28;20917;-82
2023/09/18 00:56:23;;;;;;;4.20;2.27;;;19.30;90.40;;;;;;2065093;28;20555;-81
2023/09/18 00:57:24;;;;;;;4.60;2.50;;;19.30;91.20;;;;;;2064646;28;20277;-82
2023/09/18 00:58:26;;;;;;;5.60;2.43;;;19.30;91.10;;;;;;2064631;28;20241;-81
2023/09/18 00:59:27;;;;;;;5.97;2.50;;;19.30;91.50;;;;;;2062012;28;20464;-82
2023/09/18 01:00:27;;;;;;;7.90;2.37;;;19.30;91.50;;;;;;2055830;28;20522;-82
2023/09/18 01:01:29;;;;;;;9.27;2.40;;;19.30;90.50;;;;;;2064309;28;20305;-81
2023/09/18 01:02:30;;;;;;;4.47;2.10;;;19.40;89.70;;;;;;2064029;28;20257;-82
2023/09/18 01:03:31;;;;;;;7.03;2.60;;;19.50;88.00;;;;;;2072344;28;20932;-82
2023/09/18 01:04:33;;;;;;;5.87;2.20;;;19.50;89.10;;;;;;2072199;28;20296;-82
2023/09/18 01:05:35;;;;;;;3.83;2.13;;;19.70;88.30;;;;;;2055465;28;20464;-81
2023/09/18 01:06:36;;;;;;;6.13;2.60;;;19.70;92.60;;;;;;2056112;28;20553;-82
2023/09/18 01:07:37;;;;;;;4.03;2.10;;;19.70;93.00;;;;;;2056410;28;21000;-82
2023/09/18 01:08:38;;;;;;;4.70;2.37;;;19.60;93.00;;;;;;2056000;28;20582;-82
2023/09/18 01:09:38;;;;;;;6.47;2.53;;;19.60;92.90;;;;;;2063273;28;20237;-82
2023/09/18 01:11:28;;;;;;;4.37;2.43;;;19.60;93.90;;;;;;2063590;28;20250;-81
2023/09/18 01:12:38;;;;;;;6.80;2.30;;;19.60;93.90;;;;;;2059507;28;20228;-82
2023/09/18 01:13:52;;;;;;;7.03;2.70;;;19.50;94.00;;;;;;2064754;28;20472;-82
2023/09/18 01:15:15;;;;;;;5.83;2.47;;;19.50;95.70;;;;;;2063620;28;20482;-82
2023/09/18 01:16:27;;;;;;;4.07;2.47;;;19.40;95.70;;;;;;2066624;28;20523;-81
2023/09/18 01:17:29;;;;;;;3.73;2.43;;;19.40;95.80;;;;;;2064722;28;20555;-81
2023/09/18 01:18:30;;;;;;;4.27;2.70;;;19.30;96.00;;;;;;2063477;28;20481;-81
2023/09/18 01:19:44;;;;;;;5.47;2.93;;;19.30;96.30;;;;;;2063419;28;20852;-82
2023/09/18 01:20:45;;;;;;;6.50;2.80;;;19.20;96.90;;;;;;2065893;28;20229;-82
2023/09/18 01:21:46;;;;;;;6.17;2.40;;;19.20;96.70;;;;;;2063733;28;21030;-81
2023/09/18 01:22:48;;;;;;;6.27;2.73;;;19.20;96.40;;;;;;2055636;28;20709;-81
2023/09/18 01:23:51;;;;;;;4.77;2.67;;;19.20;96.30;;;;;;2071424;28;20615;-82
2023/09/18 01:24:52;;;;;;;6.73;3.00;;;19.20;96.40;;;;;;2071237;28;20490;-80
2023/09/18 01:25:52;;;;;;;4.90;2.40;;;19.20;97.10;;;;;;2062574;28;20491;-82
2023/09/18 01:26:53;;;;;;;4.30;2.63;;;19.10;96.90;;;;;;2063134;28;20234;-82
2023/09/18 01:27:54;;;;;;;7.30;2.90;;;19.10;96.90;;;;;;2063666;28;20238;-81
2023/09/18 01:28:54;;;;;;;4.07;2.60;;;18.90;97.20;;;;;;2063413;28;20229;-82
2023/09/18 01:29:55;;;;;;;4.40;2.60;;;18.80;97.00;;;;;;2055035;28;20241;-82
2023/09/18 01:30:56;;;;;;;4.20;2.60;;;18.70;98.50;;;;;;2064206;28;20230;-81
2023/09/18 01:31:58;;;;;;;6.00;2.67;;;18.60;98.20;;;;;;2064200;28;20222;-82
2023/09/18 01:32:59;;;;;;;4.13;2.50;;;18.60;98.10;;;;;;2072161;28;20836;-82
2023/09/18 01:34:00;;;;;;;5.00;2.47;;;18.70;97.30;;;;;;2063861;28;20973;-82
2023/09/18 01:35:05;;;;;;;7.93;2.80;;;18.70;97.90;;;;;;2057948;28;20482;-82
2023/09/18 01:36:08;;;;;;;4.80;3.00;;;18.70;98.60;;;;;;2070047;28;20461;-82
2023/09/18 01:37:11;;;;;;;8.10;2.80;;;18.70;99.20;;;;;;2055928;28;20429;-81
2023/09/18 01:38:12;;;;;;;5.20;2.70;;;18.80;99.30;;;;;;2059932;28;20436;-82
2023/09/18 01:39:14;;;;;;;7.07;2.77;;;18.80;98.90;;;;;;2062991;28;20911;-82
2023/09/18 01:40:15;;;;;;;5.77;3.20;;;18.90;98.90;;;;;;2062836;28;20593;-82
2023/09/18 01:41:16;;;;;;;5.13;2.73;;;18.90;98.50;;;;;;2064080;28;20424;-82
2023/09/18 01:42:18;;;;;;;7.03;2.70;;;18.90;98.20;;;;;;2064010;28;20245;-82
2023/09/18 01:43:18;;;;;;;5.10;2.90;;;18.90;98.50;;;;;;2071570;28;20250;-82
2023/09/18 01:44:19;;;;;;;3.40;2.50;;;18.80;98.60;;;;;;2063332;28;20932;-82
2023/09/18 01:45:20;;;;;;;4.30;2.80;;;18.70;98.80;;;;;;2062587;28;20205;-82
2023/09/18 01:46:21;;;;;;;9.53;2.90;;;18.70;98.80;;;;;;2070343;28;20581;-81
2023/09/18 01:47:26;;;;;;;6.57;2.50;;;18.70;98.60;;;;;;2071451;28;20222;-81
2023/09/18 01:48:27;;;;;;;6.67;2.70;;;18.80;99.50;;;;;;2070319;28;21095;-81
2023/09/18 01:49:39;;;;;;;3.80;2.60;;;18.60;99.60;;;;;;2063669;28;20476;-81
2023/09/18 01:50:40;;;;;;;5.07;2.80;;;18.50;99.90;;;;;;2064740;28;20234;-81
2023/09/18 01:51:41;;;;;;;7.40;2.90;;;18.40;99.90;;;;;;2056172;28;20575;-81
2023/09/18 01:52:41;;;;;;;7.13;3.00;;;18.30;99.80;;;;;;2053806;28;20234;-81
2023/09/18 01:53:43;;;;;;;6.37;3.40;;;18.20;99.70;;;;;;2061536;28;20369;-81
2023/09/18 01:54:44;;;;;;;8.90;3.00;;;18.20;99.90;;;;;;2061975;28;20284;-81
2023/09/18 01:55:44;;;;;;;6.63;3.07;;;18.20;99.90;;;;;;2062814;28;20530;-81
2023/09/18 01:56:45;;;;;;;7.00;3.10;;;18.20;99.90;;;;;;2062688;28;20906;-81
2023/09/18 01:57:46;;;;;;;8.73;3.13;;;18.20;99.90;;;;;;2061354;28;20240;-81
2023/09/18 01:58:47;;;;;;;6.43;3.10;;;18.20;99.90;;;;;;2054848;28;20735;-80
2023/09/18 01:59:47;;;;;;;8.13;3.10;;;18.10;99.90;;;;;;2047335;28;20255;-81
2023/09/18 02:00:48;;;;;;;6.30;3.30;;;18.00;99.90;;;;;;2055156;28;20262;-81
2023/09/18 02:01:50;;;;;;;10.77;3.00;;;18.00;99.90;;;;;;2054834;28;20231;-80
2023/09/18 02:02:50;;;;;;;9.30;3.20;;;17.90;99.90;;;;;;2055559;28;20239;-80
2023/09/18 02:03:51;;;;;;;9.37;3.50;;;17.90;99.90;;;;;;2065480;28;20485;-80
2023/09/18 02:04:52;;;;;;;7.17;2.80;;;17.90;99.90;;;;;;2065196;28;20222;-81
2023/09/18 02:05:52;;;;;;;8.33;3.10;;;18.00;99.90;;;;;;2062868;28;20333;-79
2023/09/18 02:06:53;;;;;;;9.90;3.60;;;18.00;99.90;;;;;;2071168;28;20229;-81
2023/09/18 02:07:54;;;;;;;7.60;3.07;;;18.00;99.90;;;;;;2071174;28;20367;-81
2023/09/18 02:08:55;;;;;;;8.60;3.03;;;18.10;99.90;;;;;;2070227;28;20371;-81
2023/09/18 02:09:56;;;;;;;10.17;3.47;;;18.00;99.90;;;;;;2070924;28;20233;-81
2023/09/18 02:10:56;;;;;;;6.83;2.90;;;18.00;99.90;;;;;;2070456;28;20993;-81
2023/09/18 02:11:57;;;;;;;7.33;3.60;;;18.00;99.90;;;;;;2063519;28;20261;-81
2023/09/18 02:12:58;;;;;;;7.57;3.53;;;18.10;99.90;;;;;;2071556;28;20221;-81
2023/09/18 02:13:58;;;;;;;8.93;3.33;;;18.10;99.90;;;;;;2055385;28;20299;-81
2023/09/18 02:15:04;;;;;;;6.53;3.10;;;18.10;99.90;;;;;;2063313;28;20292;-81
2023/09/18 02:16:05;;;;;;;8.47;3.10;;;18.10;99.90;;;;;;2061938;28;20241;-80
2023/09/18 02:17:05;;;;;;;8.30;3.43;;;18.10;99.90;;;;;;2064498;28;20424;-81
2023/09/18 02:18:06;;;;;;;5.43;3.00;;;18.20;99.90;;;;;;2070861;28;20181;-80
2023/09/18 02:19:08;;;;;;;9.67;3.53;;;18.20;99.90;;;;;;2054675;28;20191;-80
2023/09/18 02:20:11;;;;;;;10.47;2.83;;;18.20;99.90;;;;;;2056951;28;20219;-80
2023/09/18 02:21:19;;;;;;;8.00;3.40;;;18.30;99.90;;;;;;2068375;28;20431;-80
2023/09/18 02:22:19;;;;;;;5.63;2.67;;;18.40;99.90;;;;;;2074971;28;20423;-81
2023/09/18 02:23:20;;;;;;;6.77;3.10;;;18.50;99.90;;;;;;2056535;28;20484;-81
2023/09/18 02:24:21;;;;;;;9.80;3.10;;;18.60;99.80;;;;;;2064910;28;20253;-81
2023/09/18 02:25:22;;;;;;;8.87;3.50;;;18.50;99.60;;;;;;2055646;28;20736;-81
2023/09/18 02:26:24;;;;;;;8.90;3.00;;;18.50;99.40;;;;;;2055537;28;20881;-82
2023/09/18 02:27:25;;;;;;;7.50;3.00;;;18.50;99.30;;;;;;2055539;28;20230;-81
2023/09/18 02:28:25;;;;;;;10.03;3.00;;;18.50;99.10;;;;;;2062331;28;20475;-80
2023/09/18 02:29:26;;;;;;;9.13;3.43;;;18.50;98.60;;;;;;2071749;28;20886;-80
2023/09/18 02:30:28;;;;;;;6.83;3.10;;;18.50;98.30;;;;;;2061291;28;20634;-80
2023/09/18 02:31:29;;;;;;;9.23;3.30;;;18.50;98.30;;;;;;2047312;28;20235;-80
2023/09/18 02:32:29;;;;;;;11.23;3.10;;;18.50;99.00;;;;;;2047181;28;20473;-80
2023/09/18 02:33:30;;;;;;;6.30;3.20;;;18.50;99.10;;;;;;2063459;28;20234;-80
2023/09/18 02:34:31;;;;;;;8.97;3.30;;;18.50;99.20;;;;;;2063277;28;20322;-81
2023/09/18 02:35:32;;;;;;;12.90;3.33;;;18.50;99.00;;;;;;2063706;28;20233;-81
2023/09/18 02:36:33;;;;;;;6.63;3.17;;;18.50;99.10;;;;;;2070971;28;20291;-81
2023/09/18 02:37:33;;;;;;;6.70;2.90;;;18.50;99.10;;;;;;2063172;28;20825;-81
2023/09/18 02:38:34;;;;;;;6.10;3.20;;;18.50;99.20;;;;;;2054889;28;20472;-81
2023/09/18 02:39:35;;;;;;;7.60;2.90;;;18.50;99.20;;;;;;2054298;28;20292;-80
2023/09/18 02:40:36;;;;;;;11.33;3.40;;;18.50;99.60;;;;;;2054811;28;20302;-81
2023/09/18 02:41:36;;;;;;;7.20;2.90;;;18.50;99.90;;;;;;2054905;28;20628;-80
2023/09/18 02:42:37;;;;;;;5.60;2.90;;;18.50;99.70;;;;;;2054708;28;20238;-80
2023/09/18 02:43:38;;;;;;;8.43;3.77;;;18.50;99.60;;;;;;2055741;28;20792;-80
2023/09/18 02:44:38;;;;;;;5.60;2.80;;;18.50;99.80;;;;;;2054934;28;20294;-81
2023/09/18 02:45:40;;;;;;;5.60;3.20;;;18.40;99.90;;;;;;2064135;28;20245;-81
2023/09/18 02:46:43;;;;;;;8.13;3.30;;;18.40;99.90;;;;;;2071156;28;20264;-81
2023/09/18 02:47:44;;;;;;;6.03;2.90;;;18.40;99.90;;;;;;2062071;28;20975;-82
2023/09/18 02:48:44;;;;;;;8.37;3.33;;;18.30;99.90;;;;;;2063244;28;20480;-81
2023/09/18 02:49:45;;;;;;;6.53;3.07;;;18.30;99.60;;;;;;2062267;28;20230;-81
2023/09/18 02:50:46;;;;;;;9.03;3.83;;;18.20;99.90;;;;;;2071101;28;20320;-81
2023/09/18 02:51:47;;;;;;;11.03;3.53;;;18.20;99.90;;;;;;2070863;28;20240;-82
2023/09/18 02:52:47;;;;;;;10.20;3.53;;;18.20;99.90;;;;;;2055186;28;20238;-81
2023/09/18 02:53:48;;;;;;;6.97;3.43;;;18.10;99.80;;;;;;2059748;28;20230;-81
2023/09/18 02:54:49;;;;;;;6.97;3.00;;;18.30;99.90;;;;;;2070648;28;20233;-81
2023/09/18 02:55:53;;;;;;;11.17;3.20;;;18.30;99.90;;;;;;2061599;28;20640;-82
2023/09/18 02:56:54;;;;;;;10.93;3.30;;;18.20;99.90;;;;;;2055598;28;20238;-81
2023/09/18 02:57:54;;;;;;;9.70;2.93;;;18.30;99.50;;;;;;2062961;28;20484;-82
2023/09/18 02:58:55;;;;;;;6.97;3.00;;;18.30;99.60;;;;;;2052814;28;20281;-82
2023/09/18 02:59:56;;;;;;;11.60;3.53;;;18.30;99.90;;;;;;2048414;28;20303;-81
2023/09/18 03:01:02;;;;;;;8.60;3.20;;;18.20;99.90;;;;;;2054750;28;20227;-81
2023/09/18 03:02:03;;;;;;;8.27;3.33;;;18.20;99.90;;;;;;2061730;28;20328;-82
2023/09/18 03:03:04;;;;;;;11.53;3.57;;;18.00;99.90;;;;;;2063687;28;20432;-82
2023/09/18 03:04:05;;;;;;;9.53;3.20;;;18.00;99.90;;;;;;2062412;28;20296;-81
2023/09/18 03:05:06;;;;;;;10.43;3.20;;;18.00;99.90;;;;;;2054424;28;20211;-81
2023/09/18 03:06:07;;;;;;;13.97;3.23;;;18.00;99.90;;;;;;2054434;28;20191;-82
2023/09/18 03:07:08;;;;;;;16.27;4.30;;;18.10;99.90;;;;;;2054470;28;20429;-81
2023/09/18 03:08:11;;;;;;;11.90;4.00;;;18.00;99.90;;;;;;2054477;28;20839;-82
2023/09/18 03:09:11;;;;;;;18.47;4.67;;;18.00;99.90;;;;;;2052860;28;20205;-80
2023/09/18 03:10:14;;;;;;;14.20;4.83;;;18.00;99.90;;;;;;2050686;28;20448;-82
2023/09/18 03:11:16;;;;;;;15.67;5.00;;;17.80;99.90;;;;;;2069528;28;20212;-82
2023/09/18 03:12:17;;;;;;;17.10;5.00;;;17.70;99.90;;;;;;2055467;28;20436;-81
2023/09/18 03:13:18;;;;;;;18.03;5.57;;;17.70;99.90;;;;;;2057928;28;21018;-81
2023/09/18 03:14:18;;;;;;;19.57;5.60;;;17.60;99.90;;;;;;2065656;28;20209;-81
2023/09/18 03:15:19;;;;;;;17.97;5.60;;;17.60;99.90;;;;;;2071275;28;20205;-82
2023/09/18 03:16:20;;;;;;;11.77;4.60;;;17.60;99.90;;;;;;2071201;28;20235;-80
2023/09/18 03:17:20;;;;;;;12.00;4.27;;;17.50;99.90;;;;;;2060593;28;20699;-81
2023/09/18 03:18:21;;;;;;;12.53;3.63;;;17.50;99.90;;;;;;2069452;28;20181;-82
2023/09/18 03:19:24;;;;;;;14.13;3.73;;;17.60;99.90;;;;;;2062738;28;20317;-81
2023/09/18 03:20:27;;;;;;;13.03;3.37;;;17.50;99.90;;;;;;2062981;28;20726;-82
2023/09/18 03:21:27;;;;;;;12.00;3.60;;;17.50;99.90;;;;;;2056126;28;20479;-81
2023/09/18 03:22:28;;;;;;;9.93;3.40;;;17.50;99.90;;;;;;2051901;28;20479;-80
2023/09/18 03:23:29;;;;;;;11.87;3.63;;;17.60;99.90;;;;;;2062731;28;20741;-82
2023/09/18 03:24:29;;;;;;;9.30;3.20;;;17.60;99.90;;;;;;2055098;28;20234;-82
2023/09/18 03:25:30;;;;;;;10.63;3.20;;;17.50;99.90;;;;;;2062913;28;20261;-82
2023/09/18 03:26:31;;;;;;;11.57;3.43;;;17.40;99.90;;;;;;2063325;28;20238;-82
2023/09/18 03:27:32;;;;;;;9.97;3.53;;;17.40;99.90;;;;;;2062206;28;20234;-80
2023/09/18 03:28:32;;;;;;;8.93;3.33;;;17.40;99.90;;;;;;2062435;28;20241;-82
2023/09/18 03:29:33;;;;;;;8.57;3.27;;;17.40;99.90;;;;;;2063069;28;20613;-81
2023/09/18 03:30:34;;;;;;;9.53;3.17;;;17.40;99.90;;;;;;2070470;28;20272;-81
2023/09/18 03:31:35;;;;;;;7.73;3.10;;;17.40;99.90;;;;;;2062798;28;20234;-82
2023/09/18 03:32:35;;;;;;;10.70;2.90;;;17.30;99.90;;;;;;2054819;28;20715;-82
2023/09/18 03:33:36;;;;;;;6.97;2.80;;;17.40;99.90;;;;;;2062565;28;20277;-81
2023/09/18 03:34:38;;;;;;;6.70;2.40;;;17.40;99.90;;;;;;2063117;28;20237;-81
2023/09/18 03:35:50;;;;;;;5.47;2.43;;;17.40;99.90;;;;;;2062483;28;20279;-81
2023/09/18 03:36:51;;;;;;;7.43;2.87;;;17.50;99.90;;;;;;2062770;28;20856;-80
2023/09/18 03:37:56;;;;;;;9.17;2.80;;;17.50;99.90;;;;;;2054464;28;20464;-81
2023/09/18 03:38:56;;;;;;;11.20;2.73;;;17.40;99.90;;;;;;2064430;28;20218;-80
2023/09/18 03:39:57;;;;;;;8.03;2.70;;;17.50;99.90;;;;;;2076842;28;20499;-80
2023/09/18 03:41:01;;;;;;;8.47;2.63;;;17.40;99.90;;;;;;2076957;28;20225;-80
2023/09/18 03:42:02;;;;;;;6.37;2.30;;;17.40;99.90;;;;;;2068144;28;20210;-81
2023/09/18 03:43:03;;;;;;;6.37;2.10;;;17.40;99.90;;;;;;2045961;28;20461;-82
2023/09/18 03:44:04;;;;;;;7.80;2.50;;;17.40;99.90;;;;;;2054558;28;20476;-82
2023/09/18 03:45:09;;;;;;;7.33;2.10;;;17.40;99.90;;;;;;2064107;28;20182;-82
2023/09/18 03:46:09;;;;;;;5.93;1.97;;;17.40;99.90;;;;;;2061930;28;20610;-82
2023/09/18 03:47:10;;;;;;;5.77;2.37;;;17.40;99.90;;;;;;2062374;28;20873;-81
2023/09/18 03:48:11;;;;;;;4.97;2.00;;;17.40;99.90;;;;;;2054132;28;20194;-82
2023/09/18 03:49:12;;;;;;;7.43;2.10;;;17.40;99.90;;;;;;2053551;28;20202;-81
2023/09/18 03:50:13;;;;;;;6.90;2.37;;;17.40;99.90;;;;;;2062509;28;20254;-80
2023/09/18 03:51:15;;;;;;;5.40;2.17;;;17.40;99.90;;;;;;2064997;28;20186;-82
2023/09/18 03:52:16;;;;;;;6.40;2.60;;;17.50;99.90;;;;;;2064889;28;21104;-82
2023/09/18 03:53:17;;;;;;;5.80;2.10;;;17.40;99.90;;;;;;2063949;28;20420;-81
2023/09/18 03:54:18;;;;;;;6.47;2.00;;;17.30;99.90;;;;;;2063438;28;20186;-81
2023/09/18 03:55:19;;;;;;;4.47;2.07;;;17.40;99.90;;;;;;2055770;28;20474;-81
2023/09/18 03:56:20;;;;;;;6.50;2.00;;;17.40;99.90;;;;;;2055982;28;20245;-81
2023/09/18 03:57:20;;;;;;;6.20;2.17;;;17.40;99.90;;;;;;2048447;28;20187;-81
2023/09/18 03:58:21;;;;;;;6.60;2.30;;;17.40;99.90;;;;;;2056024;28;20474;-81
2023/09/18 03:59:22;;;;;;;5.03;1.80;;;17.50;99.90;;;;;;2047809;28;20243;-81
2023/09/18 04:00:23;;;;;;;8.33;1.80;;;17.50;99.90;;;;;;2056105;28;20251;-81
2023/09/18 04:01:23;;;;;;;4.50;2.03;;;17.50;99.90;;;;;;2055364;28;20234;-81
2023/09/18 04:02:25;;;;;;;4.10;1.70;;;17.50;99.90;;;;;;2056860;28;20254;-81
2023/09/18 04:03:26;;;;;;;4.90;2.00;;;17.60;99.90;;;;;;2055640;28;20226;-81
2023/09/18 04:04:28;;;;;;;4.80;1.73;;;17.50;99.90;;;;;;2056424;28;20468;-81
2023/09/18 04:05:28;;;;;;;4.63;2.10;;;17.60;99.90;;;;;;2060191;28;20297;-80
2023/09/18 04:06:42;;;;;;;6.93;1.50;;;17.60;99.90;;;;;;2057832;28;20983;-81
2023/09/18 04:07:46;;;;;;;5.67;1.87;;;17.60;99.90;;;;;;2064272;28;20229;-79
2023/09/18 04:08:47;;;;;;;5.00;1.80;;;17.60;99.90;;;;;;2064061;28;20484;-80
2023/09/18 04:09:47;;;;;;;3.77;1.50;;;17.60;99.90;;;;;;2063653;28;20530;-81
2023/09/18 04:10:48;;;;;;;4.20;1.67;;;17.60;99.90;;;;;;2063675;28;21804;-81
2023/09/18 04:11:49;;;;;;;3.80;1.67;;;17.60;99.90;;;;;;2064388;28;20261;-80
2023/09/18 04:12:53;;;;;;;4.60;1.43;;;17.50;99.90;;;;;;2072303;28;20658;-81
2023/09/18 04:13:53;;;;;;;4.03;1.67;;;17.50;99.90;;;;;;2064378;28;20253;-81
2023/09/18 04:14:54;;;;;;;6.40;1.73;;;17.50;99.90;;;;;;2064096;28;20475;-81
2023/09/18 04:15:56;;;;;;;4.50;1.60;;;17.50;99.90;;;;;;2062135;28;20233;-80
2023/09/18 04:16:57;;;;;;;5.57;1.87;;;17.40;99.90;;;;;;2057473;28;20646;-79
2023/09/18 04:17:58;;;;;;;5.67;1.80;;;17.50;99.90;;;;;;2067632;28;20549;-79
2023/09/18 04:18:59;;;;;;;3.73;1.63;;;17.50;99.90;;;;;;2060581;28;20262;-80
2023/09/18 04:19:59;;;;;;;3.00;1.60;;;17.40;99.90;;;;;;2066688;28;20234;-81
2023/09/18 04:21:00;;;;;;;4.17;1.63;;;17.40;99.90;;;;;;2073875;28;20356;-82
2023/09/18 04:22:01;;;;;;;3.07;1.60;;;17.40;99.90;;;;;;2065921;28;20639;-80
2023/09/18 04:23:26;;;;;;;4.97;1.60;;;17.40;99.90;;;;;;2057556;28;20233;-81
2023/09/18 04:24:27;;;;;;;2.77;1.47;;;17.40;99.90;;;;;;2066706;28;20291;-81
2023/09/18 04:25:28;;;;;;;2.90;1.43;;;17.50;99.90;;;;;;2064904;28;20464;-82
2023/09/18 04:26:32;;;;;;;4.40;1.63;;;17.50;99.90;;;;;;2064681;28;20230;-82
2023/09/18 04:27:33;;;;;;;4.20;1.80;;;17.40;99.90;;;;;;2058182;28;20219;-81
2023/09/18 04:28:34;;;;;;;5.37;1.93;;;17.50;99.90;;;;;;2056960;28;20552;-81
2023/09/18 04:29:35;;;;;;;3.77;1.60;;;17.50;99.90;;;;;;2054125;28;20226;-82
2023/09/18 04:30:36;;;;;;;5.43;1.90;;;17.60;99.80;;;;;;2055921;28;20231;-82
2023/09/18 04:31:37;;;;;;;4.53;1.40;;;17.50;99.80;;;;;;2056556;28;20468;-82
2023/09/18 04:32:39;;;;;;;9.80;1.60;;;17.50;99.90;;;;;;2064607;28;20642;-82
2023/09/18 04:33:40;;;;;;;4.47;1.70;;;17.50;99.90;;;;;;2072326;28;21101;-82
2023/09/18 04:34:42;;;;;;;5.03;1.40;;;17.60;99.90;;;;;;2065552;28;20468;-81
2023/09/18 04:35:44;;;;;;;5.90;1.60;;;17.60;99.90;;;;;;2056703;28;20222;-82
2023/09/18 04:36:44;;;;;;;2.60;1.47;;;17.70;99.40;;;;;;2049350;28;20948;-81
2023/09/18 04:37:45;;;;;;;3.63;1.40;;;17.70;98.80;;;;;;2048318;29;20482;-81
2023/09/18 04:38:46;;;;;;;3.93;1.37;;;17.80;98.50;;;;;;2063899;28;20289;-80
2023/09/18 04:39:46;;;;;;;3.87;1.90;;;17.80;98.70;;;;;;2064017;28;20237;-82
2023/09/18 04:40:47;;;;;;;4.03;1.40;;;17.80;98.40;;;;;;2064424;28;20264;-81
2023/09/18 04:41:48;;;;;;;2.73;1.10;;;17.80;98.00;;;;;;2064425;28;20770;-80
2023/09/18 04:42:48;;;;;;;4.23;1.40;;;17.80;97.90;;;;;;2063999;28;20226;-81
2023/09/18 04:43:50;;;;;;;3.37;1.30;;;17.80;97.90;;;;;;2064480;28;20225;-80
2023/09/18 04:44:51;;;;;;;2.43;1.10;;;17.80;97.10;;;;;;2063875;28;20225;-81
2023/09/18 04:45:52;;;;;;;5.20;1.47;;;17.80;95.90;;;;;;2056529;28;20467;-82
2023/09/18 04:46:52;;;;;;;3.17;1.20;;;17.90;96.20;;;;;;2064338;28;20268;-82
2023/09/18 04:47:54;;;;;;;3.60;1.13;;;17.90;95.80;;;;;;2056395;28;20262;-81
2023/09/18 04:48:54;;;;;;;2.83;1.13;;;18.00;95.70;;;;;;2056154;28;20759;-82
2023/09/18 04:49:55;;;;;;;2.10;1.20;;;18.10;95.60;;;;;;2059267;28;20471;-79
2023/09/18 04:50:59;;;;;;;4.50;1.40;;;18.10;94.70;;;;;;2071915;28;20229;-81
2023/09/18 04:51:59;;;;;;;3.03;1.10;;;18.10;95.00;;;;;;2063648;28;20260;-81
2023/09/18 04:53:00;;;;;;;2.83;1.07;;;18.20;94.60;;;;;;2055756;28;21017;-81
2023/09/18 04:54:01;;;;;;;2.47;1.17;;;18.20;94.40;;;;;;2047669;28;20225;-81
2023/09/18 04:55:03;;;;;;;2.87;1.30;;;18.20;94.30;;;;;;2055264;28;20245;-81
2023/09/18 04:56:04;;;;;;;3.70;1.20;;;18.20;94.60;;;;;;2063620;28;20497;-81
2023/09/18 04:57:05;;;;;;;3.30;1.20;;;18.30;94.10;;;;;;2055371;28;20958;-81
2023/09/18 04:58:06;;;;;;;3.27;1.37;;;18.30;93.70;;;;;;2047811;28;20188;-81
2023/09/18 04:59:07;;;;;;;4.90;1.40;;;18.20;93.90;;;;;;2055907;28;20965;-80
2023/09/18 05:00:08;;;;;;;3.83;1.33;;;18.30;93.60;;;;;;2055676;28;20449;-81
2023/09/18 05:01:11;;;;;;;3.57;1.47;;;18.30;93.60;;;;;;2055675;28;20198;-80
2023/09/18 05:02:11;;;;;;;4.20;1.63;;;18.30;93.60;;;;;;2056190;28;20453;-81
2023/09/18 05:03:12;;;;;;;3.23;1.40;;;18.30;94.00;;;;;;2071615;28;20415;-81
2023/09/18 05:04:14;;;;;;;8.00;1.73;;;18.30;94.10;;;;;;2080202;28;20181;-81
2023/09/18 05:05:14;;;;;;;5.67;1.93;;;18.30;94.40;;;;;;2063431;28;20420;-82
2023/09/18 05:06:16;;;;;;;6.37;1.70;;;18.30;94.70;;;;;;2063949;28;20462;-82
2023/09/18 05:07:17;;;;;;;6.43;1.80;;;18.20;94.90;;;;;;2063380;28;20182;-81
2023/09/18 05:08:17;;;;;;;7.47;1.90;;;18.10;95.40;;;;;;2063495;28;20853;-80
2023/09/18 05:09:18;;;;;;;5.93;1.90;;;18.00;96.30;;;;;;2062868;28;20201;-80
2023/09/18 05:10:19;;;;;;;7.80;2.00;;;17.80;97.40;;;;;;2063550;28;20304;-80
2023/09/18 05:11:20;;;;;;;5.73;2.20;;;17.60;98.10;;;;;;2063360;28;20688;-80
2023/09/18 05:12:22;;;;;;;7.00;1.93;;;17.50;99.20;;;;;;2063487;28;20679;-80
2023/09/18 05:13:22;;;;;;;12.83;2.17;;;17.40;99.90;;;;;;2064055;28;20509;-82
2023/09/18 05:14:23;;;;;;;7.50;2.20;;;17.30;99.90;;;;;;2063177;28;21380;-82
2023/09/18 05:15:29;;;;;;;10.37;2.10;;;17.10;99.90;;;;;;2063844;28;20238;-80
2023/09/18 05:16:30;;;;;;;6.17;1.90;;;17.10;99.90;;;;;;2056905;28;20230;-80
2023/09/18 05:17:52;;;;;;;8.17;2.10;;;17.00;99.90;;;;;;2058258;28;21013;-81
2023/09/18 05:18:52;;;;;;;10.63;2.73;;;16.90;99.90;;;;;;2058692;28;20308;-80
2023/09/18 05:19:53;;;;;;;6.47;1.93;;;16.90;99.90;;;;;;2055561;28;21504;-80
2023/09/18 05:20:54;;;;;;;5.63;2.00;;;16.90;99.90;;;;;;2055552;28;20238;-79